createdAt,value
2018-04-27T00:00:48.242Z,0
2018-04-27T00:01:48.318Z,0
2018-04-27T00:02:48.248Z,0
2018-04-27T00:03:48.246Z,0
2018-04-27T00:04:48.252Z,0
2018-04-27T00:05:48.209Z,0
2018-04-27T00:06:48.252Z,0
2018-04-27T00:07:48.251Z,0
2018-04-27T00:08:48.242Z,0
2018-04-27T00:09:48.220Z,0
2018-04-27T00:10:48.319Z,0
2018-04-27T00:11:48.351Z,0
2018-04-27T00:12:48.321Z,0
2018-04-27T00:13:48.244Z,0
2018-04-27T00:14:48.242Z,0
2018-04-27T00:15:48.243Z,0
2018-04-27T00:16:48.301Z,0
2018-04-27T00:17:48.247Z,0
2018-04-27T00:18:48.329Z,0
2018-04-27T00:19:48.329Z,0
2018-04-27T00:20:48.261Z,0
2018-04-27T00:21:48.328Z,0
2018-04-27T00:22:48.328Z,0
2018-04-27T00:23:48.334Z,0
2018-04-27T00:24:48.259Z,0
2018-04-27T00:25:48.331Z,0
2018-04-27T00:26:48.260Z,0
2018-04-27T00:27:48.332Z,0
2018-04-27T00:28:48.369Z,0
2018-04-27T00:29:48.303Z,0
2018-04-27T00:30:48.331Z,0
2018-04-27T00:31:48.334Z,0
2018-04-27T00:32:48.389Z,0
2018-04-27T00:33:48.258Z,0
2018-04-27T00:34:48.363Z,0
2018-04-27T00:35:48.241Z,0
2018-04-27T00:36:48.369Z,0
2018-04-27T00:37:48.260Z,0
2018-04-27T00:38:48.265Z,0
2018-04-27T00:39:48.318Z,0
2018-04-27T00:40:48.232Z,0
2018-04-27T00:41:48.209Z,0
2018-04-27T00:42:48.237Z,0
2018-04-27T00:43:48.210Z,0
2018-04-27T00:44:48.242Z,0
2018-04-27T00:45:48.277Z,0
2018-04-27T00:46:48.280Z,0
2018-04-27T00:47:48.339Z,0
2018-04-27T00:48:48.253Z,0
2018-04-27T00:49:48.276Z,0
2018-04-27T00:50:48.348Z,0
2018-04-27T00:51:48.380Z,0
2018-04-27T00:52:48.248Z,0
2018-04-27T00:53:48.350Z,0
2018-04-27T00:54:48.366Z,0
2018-04-27T00:55:48.320Z,0
2018-04-27T00:56:48.352Z,0
2018-04-27T00:57:48.255Z,0
2018-04-27T00:58:48.322Z,0
2018-04-27T00:59:48.390Z,0
2018-04-27T01:00:48.385Z,0
2018-04-27T01:01:48.388Z,0
2018-04-27T01:02:48.256Z,0
2018-04-27T01:03:48.329Z,0
2018-04-27T01:04:48.379Z,0
2018-04-27T01:05:48.254Z,0
2018-04-27T01:06:48.337Z,0
2018-04-27T01:07:48.426Z,0
2018-04-27T01:08:48.296Z,0
2018-04-27T01:09:48.327Z,0
2018-04-27T01:10:48.297Z,0
2018-04-27T01:11:48.363Z,0
2018-04-27T01:12:48.294Z,0
2018-04-27T01:13:48.368Z,0
2018-04-27T01:14:48.366Z,0
2018-04-27T01:15:48.298Z,0
2018-04-27T01:16:48.369Z,0
2018-04-27T01:17:48.300Z,0
2018-04-27T01:18:48.406Z,0
2018-04-27T01:19:48.331Z,0
2018-04-27T01:20:48.339Z,0
2018-04-27T01:21:48.448Z,0
2018-04-27T01:22:48.284Z,0
2018-04-27T01:23:48.408Z,0
2018-04-27T01:24:48.328Z,0
2018-04-27T01:25:48.336Z,0
2018-04-27T01:26:48.275Z,0
2018-04-27T01:27:48.404Z,0
2018-04-27T01:28:48.365Z,0
2018-04-27T01:29:48.413Z,0
2018-04-27T01:30:48.399Z,0
2018-04-27T01:31:48.302Z,0
2018-04-27T01:32:48.299Z,0
2018-04-27T01:33:48.408Z,0
2018-04-27T01:34:48.376Z,0
2018-04-27T01:35:48.298Z,0
2018-04-27T01:36:48.379Z,0
2018-04-27T01:37:48.280Z,0
2018-04-27T01:38:48.271Z,0
2018-04-27T01:39:48.236Z,0
2018-04-27T01:40:48.295Z,0
2018-04-27T01:41:48.329Z,0
2018-04-27T01:42:48.233Z,0
2018-04-27T01:43:48.230Z,0
2018-04-27T01:44:48.237Z,0
2018-04-27T01:45:48.328Z,0
2018-04-27T01:46:48.238Z,0
2018-04-27T01:47:48.246Z,0
2018-04-27T01:48:48.319Z,0
2018-04-27T01:49:48.290Z,0
2018-04-27T01:50:48.328Z,0
2018-04-27T01:51:48.290Z,0
2018-04-27T01:52:48.257Z,0
2018-04-27T01:53:48.381Z,0
2018-04-27T01:54:48.291Z,0
2018-04-27T01:55:48.311Z,0
2018-04-27T01:56:48.386Z,0
2018-04-27T01:57:48.383Z,0
2018-04-27T01:58:48.385Z,0
2018-04-27T01:59:48.325Z,0
2018-04-27T02:00:48.396Z,0
2018-04-27T02:01:48.324Z,0
2018-04-27T02:02:48.397Z,0
2018-04-27T02:03:48.401Z,0
2018-04-27T02:04:48.328Z,0
2018-04-27T02:05:48.329Z,0
2018-04-27T02:06:48.400Z,0
2018-04-27T02:07:48.399Z,0
2018-04-27T02:08:48.400Z,0
2018-04-27T02:09:48.428Z,0
2018-04-27T02:10:48.318Z,0
2018-04-27T02:11:48.336Z,0
2018-04-27T02:12:48.462Z,0
2018-04-27T02:13:48.315Z,0
2018-04-27T02:14:48.358Z,0
2018-04-27T02:15:48.368Z,0
2018-04-27T02:16:48.399Z,0
2018-04-27T02:17:48.428Z,0
2018-04-27T02:18:48.430Z,0
2018-04-27T02:19:48.334Z,0
2018-04-27T02:20:48.426Z,0
2018-04-27T02:21:48.340Z,0
2018-04-27T02:22:48.341Z,0
2018-04-27T02:23:48.341Z,0
2018-04-27T02:24:48.412Z,0
2018-04-27T02:25:48.470Z,0
2018-04-27T02:26:48.486Z,0
2018-04-27T02:27:48.300Z,0
2018-04-27T02:28:48.343Z,0
2018-04-27T02:29:48.349Z,0
2018-04-27T02:30:48.407Z,0
2018-04-27T02:31:48.405Z,0
2018-04-27T02:32:48.407Z,0
2018-04-27T02:33:48.407Z,0
2018-04-27T02:34:48.411Z,0
2018-04-27T02:35:48.340Z,0
2018-04-27T02:36:48.410Z,0
2018-04-27T02:37:48.340Z,0
2018-04-27T02:38:48.334Z,0
2018-04-27T02:39:48.425Z,0
2018-04-27T02:40:48.446Z,0
2018-04-27T02:41:48.417Z,0
2018-04-27T02:42:48.471Z,0
2018-04-27T02:43:48.423Z,0
2018-04-27T02:44:48.456Z,0
2018-04-27T02:45:48.460Z,0
2018-04-27T02:46:48.418Z,0
2018-04-27T02:47:48.317Z,0
2018-04-27T02:48:48.386Z,0
2018-04-27T02:49:48.379Z,0
2018-04-27T02:50:48.344Z,0
2018-04-27T02:51:48.422Z,0
2018-04-27T02:52:48.427Z,0
2018-04-27T02:53:48.407Z,0
2018-04-27T02:54:48.327Z,0
2018-04-27T02:55:48.466Z,0
2018-04-27T02:56:48.424Z,0
2018-04-27T02:57:48.425Z,0
2018-04-27T02:58:48.437Z,0
2018-04-27T02:59:48.372Z,0
2018-04-27T03:00:48.449Z,0
2018-04-27T03:01:48.347Z,0
2018-04-27T03:02:48.486Z,0
2018-04-27T03:03:48.433Z,0
2018-04-27T03:04:48.368Z,0
2018-04-27T03:05:48.457Z,0
2018-04-27T03:06:48.371Z,0
2018-04-27T03:07:48.458Z,0
2018-04-27T03:08:48.489Z,0
2018-04-27T03:09:48.432Z,0
2018-04-27T03:10:48.397Z,0
2018-04-27T03:11:48.360Z,0
2018-04-27T03:12:48.465Z,0
2018-04-27T03:13:48.417Z,0
2018-04-27T03:14:48.464Z,0
2018-04-27T03:15:48.347Z,0
2018-04-27T03:16:48.409Z,0
2018-04-27T03:17:48.480Z,0
2018-04-27T03:18:48.413Z,0
2018-04-27T03:19:48.378Z,4
2018-04-27T03:20:48.406Z,4
2018-04-27T03:21:48.379Z,4
2018-04-27T03:22:48.376Z,0
2018-04-27T03:23:48.520Z,0
2018-04-27T03:24:48.373Z,4
2018-04-27T03:25:48.378Z,4
2018-04-27T03:26:48.448Z,8
2018-04-27T03:27:48.377Z,4
2018-04-27T03:28:48.448Z,8
2018-04-27T03:29:48.449Z,4
2018-04-27T03:30:48.415Z,12
2018-04-27T03:31:48.453Z,12
2018-04-27T03:32:48.384Z,12
2018-04-27T03:33:48.381Z,16
2018-04-27T03:34:48.414Z,16
2018-04-27T03:35:48.384Z,20
2018-04-27T03:36:48.458Z,24
2018-04-27T03:37:48.448Z,28
2018-04-27T03:38:48.388Z,32
2018-04-27T03:39:48.388Z,36
2018-04-27T03:40:48.488Z,44
2018-04-27T03:41:48.491Z,52
2018-04-27T03:42:48.408Z,56
2018-04-27T03:43:48.457Z,68
2018-04-27T03:44:48.427Z,80
2018-04-27T03:45:48.395Z,92
2018-04-27T03:46:48.356Z,104
2018-04-27T03:47:48.375Z,120
2018-04-27T03:48:48.461Z,136
2018-04-27T03:49:48.418Z,156
2018-04-27T03:50:48.434Z,172
2018-04-27T03:51:48.484Z,184
2018-04-27T03:52:48.443Z,196
2018-04-27T03:53:48.367Z,212
2018-04-27T03:54:48.368Z,232
2018-04-27T03:55:48.433Z,252
2018-04-27T03:56:48.367Z,284
2018-04-27T03:57:48.502Z,316
2018-04-27T03:58:48.506Z,352
2018-04-27T03:59:48.472Z,388
2018-04-27T04:00:48.476Z,428
2018-04-27T04:01:48.397Z,472
2018-04-27T04:02:48.398Z,512
2018-04-27T04:03:48.402Z,528
2018-04-27T04:04:48.399Z,544
2018-04-27T04:05:48.405Z,560
2018-04-27T04:06:48.489Z,596
2018-04-27T04:07:48.401Z,664
2018-04-27T04:08:48.434Z,744
2018-04-27T04:09:48.498Z,836
2018-04-27T04:10:48.504Z,936
2018-04-27T04:11:48.491Z,1040
2018-04-27T04:12:48.472Z,1120
2018-04-27T04:13:48.376Z,1200
2018-04-27T04:14:48.471Z,1280
2018-04-27T04:15:48.439Z,1360
2018-04-27T04:16:48.446Z,1448
2018-04-27T04:17:48.501Z,1500
2018-04-27T04:18:48.496Z,1576
2018-04-27T04:19:48.408Z,1728
2018-04-27T04:20:48.479Z,1856
2018-04-27T04:21:48.486Z,1972
2018-04-27T04:22:48.407Z,2080
2018-04-27T04:23:48.483Z,2196
2018-04-27T04:24:48.413Z,2332
2018-04-27T04:25:48.411Z,2468
2018-04-27T04:26:48.559Z,2640
2018-04-27T04:27:48.490Z,2804
2018-04-27T04:28:48.480Z,2944
2018-04-27T04:29:48.490Z,3092
2018-04-27T04:30:48.485Z,3236
2018-04-27T04:31:48.417Z,3364
2018-04-27T04:32:48.489Z,3456
2018-04-27T04:33:48.442Z,3548
2018-04-27T04:34:48.421Z,3628
2018-04-27T04:35:48.379Z,3656
2018-04-27T04:36:48.490Z,3792
2018-04-27T04:37:48.488Z,3892
2018-04-27T04:38:48.419Z,3996
2018-04-27T04:39:48.410Z,4164
2018-04-27T04:40:48.459Z,4328
2018-04-27T04:41:48.395Z,4532
2018-04-27T04:42:48.510Z,4764
2018-04-27T04:43:48.473Z,5032
2018-04-27T04:44:48.447Z,5332
2018-04-27T04:45:48.532Z,5680
2018-04-27T04:46:48.471Z,6068
2018-04-27T04:47:48.563Z,6496
2018-04-27T04:48:48.459Z,6920
2018-04-27T04:49:48.521Z,7332
2018-04-27T04:50:48.496Z,7732
2018-04-27T04:51:48.469Z,8112
2018-04-27T04:52:48.468Z,8500
2018-04-27T04:53:48.498Z,8916
2018-04-27T04:54:48.517Z,9320
2018-04-27T04:55:48.531Z,9788
2018-04-27T04:56:48.499Z,10248
2018-04-27T04:57:48.470Z,10540
2018-04-27T04:58:48.464Z,10728
2018-04-27T04:59:48.507Z,10732
2018-04-27T05:00:48.502Z,10596
2018-04-27T05:01:48.435Z,10336
2018-04-27T05:02:48.515Z,9876
2018-04-27T05:03:48.508Z,9344
2018-04-27T05:04:48.505Z,8820
2018-04-27T05:05:48.438Z,8424
2018-04-27T05:06:48.507Z,8128
2018-04-27T05:07:48.439Z,8064
2018-04-27T05:08:48.439Z,8176
2018-04-27T05:09:48.472Z,8292
2018-04-27T05:10:48.458Z,8488
2018-04-27T05:11:48.482Z,8736
2018-04-27T05:12:48.547Z,8956
2018-04-27T05:13:48.510Z,9088
2018-04-27T05:14:48.472Z,9244
2018-04-27T05:15:48.471Z,9408
2018-04-27T05:16:48.486Z,9564
2018-04-27T05:17:48.539Z,9848
2018-04-27T05:18:48.536Z,10188
2018-04-27T05:19:48.545Z,10636
2018-04-27T05:20:48.491Z,11064
2018-04-27T05:21:48.516Z,11404
2018-04-27T05:22:48.532Z,11736
2018-04-27T05:23:48.551Z,11868
2018-04-27T05:24:48.564Z,11964
2018-04-27T05:25:48.518Z,11836
2018-04-27T05:26:48.487Z,11884
2018-04-27T05:27:48.475Z,11788
2018-04-27T05:28:48.458Z,11748
2018-04-27T05:29:48.651Z,11844
2018-04-27T05:30:48.543Z,12152
2018-04-27T05:31:48.554Z,12416
2018-04-27T05:32:48.555Z,12716
2018-04-27T05:33:48.623Z,12812
2018-04-27T05:34:48.585Z,12804
2018-04-27T05:35:48.549Z,12916
2018-04-27T05:36:48.544Z,13148
2018-04-27T05:37:48.567Z,13572
2018-04-27T05:38:48.433Z,13804
2018-04-27T05:39:48.545Z,14040
2018-04-27T05:40:48.445Z,14208
2018-04-27T05:41:48.437Z,14380
2018-04-27T05:42:48.568Z,14588
2018-04-27T05:43:48.582Z,17160
2018-04-27T05:44:48.531Z,28896
2018-04-27T05:45:48.473Z,36256
2018-04-27T05:46:48.574Z,36768
2018-04-27T05:47:48.573Z,37664
2018-04-27T05:48:48.562Z,37408
2018-04-27T05:49:48.472Z,38272
2018-04-27T05:50:48.436Z,39360
2018-04-27T05:51:48.572Z,41056
2018-04-27T05:52:48.509Z,33728
2018-04-27T05:53:48.504Z,38560
2018-04-27T05:54:48.499Z,41248
2018-04-27T05:55:48.570Z,42784
2018-04-27T05:56:48.495Z,42944
2018-04-27T05:57:48.535Z,44544
2018-04-27T05:58:48.441Z,44320
2018-04-27T05:59:48.464Z,45184
2018-04-27T06:00:48.557Z,42784
2018-04-27T06:01:48.536Z,41728
2018-04-27T06:02:48.573Z,44192
2018-04-27T06:03:48.545Z,44672
2018-04-27T06:04:48.519Z,43936
2018-04-27T06:05:48.574Z,37952
2018-04-27T06:06:48.575Z,46720
2018-04-27T06:07:48.551Z,48288
2018-04-27T06:08:48.589Z,50368
2018-04-27T06:09:48.573Z,47680
2018-04-27T06:10:48.450Z,46400
2018-04-27T06:11:48.578Z,44480
2018-04-27T06:12:48.471Z,48320
2018-04-27T06:13:48.575Z,46656
2018-04-27T06:14:48.546Z,45120
2018-04-27T06:15:48.550Z,45280
2018-04-27T06:16:48.525Z,45056
2018-04-27T06:17:48.578Z,47552
2018-04-27T06:18:48.579Z,55680
2018-04-27T06:19:48.535Z,50240
2018-04-27T06:20:48.556Z,54944
2018-04-27T06:21:48.487Z,53536
2018-04-27T06:22:48.490Z,51680
2018-04-27T06:23:48.524Z,50560
2018-04-27T06:24:48.562Z,42304
2018-04-27T06:25:48.577Z,43168
2018-04-27T06:26:48.560Z,52736
2018-04-27T06:27:48.555Z,55136
2018-04-27T06:28:48.491Z,60384
2018-04-27T06:29:48.478Z,60352
2018-04-27T06:30:48.516Z,58016
2018-04-27T06:31:48.493Z,55584
2018-04-27T06:32:48.515Z,57024
2018-04-27T06:33:48.553Z,53888
2018-04-27T06:34:48.527Z,65632
2018-04-27T06:35:48.467Z,61824
2018-04-27T06:36:48.465Z,69440
2018-04-27T06:37:48.567Z,68736
2018-04-27T06:38:48.430Z,69952
2018-04-27T06:39:48.497Z,66752
2018-04-27T06:40:48.504Z,70432
2018-04-27T06:41:48.564Z,68256
2018-04-27T06:42:48.497Z,46208
2018-04-27T06:43:48.588Z,50272
2018-04-27T06:44:48.515Z,54208
2018-04-27T06:45:48.465Z,55808
2018-04-27T06:46:48.532Z,57376
2018-04-27T06:47:48.567Z,68736
2018-04-27T06:48:48.504Z,60064
2018-04-27T06:49:48.608Z,62528
2018-04-27T06:50:48.619Z,62944
2018-04-27T06:51:48.538Z,70784
2018-04-27T06:52:48.551Z,69152
2018-04-27T06:53:48.595Z,69792
2018-04-27T06:54:48.551Z,70016
2018-04-27T06:55:48.574Z,67872
2018-04-27T06:56:48.614Z,69056
2018-04-27T06:57:48.609Z,75648
2018-04-27T06:58:48.546Z,80992
2018-04-27T06:59:48.539Z,79296
2018-04-27T07:00:48.479Z,78144
2018-04-27T07:01:48.540Z,78368
2018-04-27T07:02:48.587Z,81184
2018-04-27T07:03:48.535Z,79680
2018-04-27T07:04:48.500Z,79008
2018-04-27T07:05:48.486Z,74656
2018-04-27T07:06:48.613Z,76864
2018-04-27T07:07:48.581Z,81600
2018-04-27T07:08:48.544Z,84608
2018-04-27T07:09:48.521Z,85856
2018-04-27T07:10:48.556Z,80192
2018-04-27T07:11:48.612Z,80288
2018-04-27T07:12:48.555Z,76128
2018-04-27T07:13:48.560Z,85152
2018-04-27T07:14:48.553Z,82912
2018-04-27T07:15:48.603Z,75296
2018-04-27T07:16:48.490Z,78208
2018-04-27T07:17:48.620Z,81248
2018-04-27T07:18:48.609Z,90944
2018-04-27T07:19:48.595Z,90688
2018-04-27T07:20:48.522Z,91744
2018-04-27T07:21:48.591Z,90624
2018-04-27T07:22:48.555Z,91744
2018-04-27T07:23:48.526Z,88608
2018-04-27T07:24:48.594Z,89856
2018-04-27T07:25:48.543Z,84928
2018-04-27T07:26:48.524Z,85920
2018-04-27T07:27:48.525Z,94496
2018-04-27T07:28:48.535Z,95008
2018-04-27T07:29:48.613Z,94048
2018-04-27T07:30:48.595Z,94592
2018-04-27T07:31:48.635Z,95008
2018-04-27T07:32:48.505Z,90784
2018-04-27T07:33:48.577Z,96480
2018-04-27T07:34:48.506Z,97056
2018-04-27T07:35:48.553Z,83264
2018-04-27T07:36:48.576Z,93152
2018-04-27T07:37:48.605Z,100832
2018-04-27T07:38:48.539Z,102688
2018-04-27T07:39:48.601Z,92128
2018-04-27T07:40:48.597Z,101568
2018-04-27T07:41:48.556Z,98592
2018-04-27T07:42:48.505Z,104864
2018-04-27T07:43:48.595Z,100704
2018-04-27T07:44:48.510Z,95584
2018-04-27T07:45:48.598Z,107008
2018-04-27T07:46:48.588Z,100352
2018-04-27T07:47:48.472Z,103424
2018-04-27T07:48:48.544Z,107328
2018-04-27T07:49:48.498Z,98880
2018-04-27T07:50:48.586Z,100384
2018-04-27T07:51:48.641Z,104864
2018-04-27T07:52:48.570Z,110304
2018-04-27T07:53:48.520Z,107936
2018-04-27T07:54:48.562Z,109856
2018-04-27T07:55:48.516Z,105600
2018-04-27T07:56:48.535Z,97216
2018-04-27T07:57:48.648Z,97152
2018-04-27T07:58:48.578Z,97760
2018-04-27T07:59:48.611Z,100480
2018-04-27T08:00:48.516Z,103840
2018-04-27T08:01:48.517Z,105696
2018-04-27T08:02:48.468Z,106368
2018-04-27T08:03:48.471Z,106720
2018-04-27T08:04:48.484Z,106336
2018-04-27T08:05:48.689Z,96384
2018-04-27T08:06:48.468Z,104736
2018-04-27T08:07:48.690Z,99936
2018-04-27T08:08:48.557Z,98624
2018-04-27T08:09:48.518Z,96032
2018-04-27T08:10:48.618Z,100704
2018-04-27T08:12:48.555Z,110400
2018-04-27T08:13:48.556Z,108608
2018-04-27T08:14:48.525Z,113760
2018-04-27T08:15:48.554Z,115616
2018-04-27T08:16:48.630Z,114304
2018-04-27T08:17:48.561Z,112128
2018-04-27T08:18:48.628Z,112832
2018-04-27T08:19:48.558Z,107456
2018-04-27T08:20:48.638Z,108992
2018-04-27T08:21:48.658Z,104704
2018-04-27T08:22:48.600Z,106272
2018-04-27T08:23:48.591Z,107200
2018-04-27T08:24:48.649Z,111872
2018-04-27T08:25:48.587Z,114816
2018-04-27T08:26:48.605Z,116704
2018-04-27T08:27:48.658Z,118432
2018-04-27T08:28:48.663Z,117440
2018-04-27T08:29:48.594Z,116736
2018-04-27T08:30:48.604Z,116032
2018-04-27T08:31:48.595Z,115136
2018-04-27T08:32:48.668Z,112000
2018-04-27T08:33:48.540Z,108512
2018-04-27T08:34:48.634Z,112192
2018-04-27T08:35:48.609Z,115232
2018-04-27T08:36:48.608Z,115136
2018-04-27T08:37:48.599Z,111872
2018-04-27T08:38:48.672Z,109280
2018-04-27T08:39:48.662Z,103552
2018-04-27T08:40:48.664Z,109856
2018-04-27T08:41:48.599Z,108928
2018-04-27T08:42:48.658Z,88960
2018-04-27T08:43:48.710Z,88928
2018-04-27T08:44:48.614Z,113120
2018-04-27T08:45:48.562Z,109088
2018-04-27T08:46:48.625Z,105824
2018-04-27T08:47:48.679Z,101376
2018-04-27T08:48:48.610Z,100576
2018-04-27T08:49:48.658Z,92576
2018-04-27T08:50:48.505Z,97984
2018-04-27T08:51:48.632Z,101088
2018-04-27T08:52:48.628Z,103616
2018-04-27T08:53:48.524Z,105024
2018-04-27T08:54:48.523Z,107264
2018-04-27T08:55:48.520Z,103936
2018-04-27T08:56:48.582Z,105888
2018-04-27T08:57:48.659Z,106272
2018-04-27T08:58:48.579Z,106336
2018-04-27T08:59:48.524Z,108064
2018-04-27T09:00:48.682Z,106368
2018-04-27T09:01:48.554Z,107424
2018-04-27T09:02:48.710Z,108608
2018-04-27T09:03:48.630Z,104864
2018-04-27T09:04:48.698Z,102144
2018-04-27T09:05:48.622Z,100800
2018-04-27T09:06:48.629Z,99136
2018-04-27T09:07:48.690Z,100160
2018-04-27T09:08:48.564Z,97184
2018-04-27T09:09:48.660Z,101344
2018-04-27T09:10:48.659Z,97536
2018-04-27T09:11:48.628Z,99136
2018-04-27T09:12:48.660Z,92256
2018-04-27T09:13:48.597Z,90272
2018-04-27T09:14:48.601Z,94688
2018-04-27T09:15:48.628Z,96864
2018-04-27T09:16:48.597Z,98432
2018-04-27T09:17:48.664Z,102080
2018-04-27T09:18:48.601Z,99072
2018-04-27T09:20:48.551Z,90400
2018-04-27T09:21:48.576Z,89984
2018-04-27T09:22:48.557Z,90240
2018-04-27T09:23:48.576Z,92352
2018-04-27T09:24:48.654Z,95040
2018-04-27T09:25:48.601Z,99392
2018-04-27T09:26:48.624Z,96896
2018-04-27T09:27:48.677Z,98720
2018-04-27T09:28:48.557Z,102816
2018-04-27T09:29:48.656Z,99808
2018-04-27T09:30:48.599Z,106400
2018-04-27T09:31:48.571Z,106336
2018-04-27T09:32:48.602Z,100544
2018-04-27T09:33:48.540Z,96864
2018-04-27T09:34:48.639Z,103616
2018-04-27T09:35:48.545Z,105888
2018-04-27T09:36:48.627Z,104128
2018-04-27T09:37:48.565Z,109216
2018-04-27T09:38:48.658Z,110656
2018-04-27T09:39:48.608Z,113024
2018-04-27T09:40:48.679Z,127136
2018-04-27T09:41:48.709Z,122816
2018-04-27T09:42:48.675Z,106208
2018-04-27T09:43:48.714Z,96704
2018-04-27T09:44:48.718Z,121760
2018-04-27T09:45:48.705Z,127424
2018-04-27T09:46:48.721Z,136512
2018-04-27T09:47:48.640Z,133792
2018-04-27T09:48:48.713Z,124256
2018-04-27T09:49:48.642Z,114336
2018-04-27T09:50:48.727Z,108800
2018-04-27T09:51:48.654Z,119712
2018-04-27T09:52:48.720Z,114720
2018-04-27T09:53:48.719Z,114720
2018-04-27T09:54:48.727Z,118528
2018-04-27T09:55:48.763Z,125152
2018-04-27T09:56:48.738Z,122912
2018-04-27T09:57:48.648Z,131520
2018-04-27T09:58:48.731Z,124704
2018-04-27T09:59:48.669Z,115296
2018-04-27T10:00:48.715Z,116576
2018-04-27T10:01:48.700Z,113184
2018-04-27T10:02:48.599Z,121472
2018-04-27T10:03:48.657Z,125760
2018-04-27T10:04:48.656Z,123392
2018-04-27T10:05:48.831Z,116064
2018-04-27T10:06:48.655Z,121184
2018-04-27T10:07:48.692Z,109568
2018-04-27T10:08:48.595Z,120832
2018-04-27T10:09:48.668Z,117248
2018-04-27T10:10:48.654Z,115520
2018-04-27T10:11:48.662Z,110720
2018-04-27T10:12:48.601Z,104064
2018-04-27T10:13:48.718Z,112768
2018-04-27T10:14:48.704Z,107584
2018-04-27T10:15:48.600Z,111264
2018-04-27T10:16:48.614Z,117888
2018-04-27T10:17:48.737Z,118592
2018-04-27T10:18:48.684Z,116096
2018-04-27T10:19:48.608Z,114016
2018-04-27T10:20:48.702Z,111904
2018-04-27T10:21:48.703Z,127968
2018-04-27T10:22:48.707Z,131424
2018-04-27T10:23:48.627Z,129184
2018-04-27T10:24:48.737Z,126336
2018-04-27T10:25:48.691Z,114240
2018-04-27T10:26:48.704Z,124032
2018-04-27T10:27:48.609Z,117888
2018-04-27T10:28:48.730Z,111520
2018-04-27T10:29:48.649Z,104704
2018-04-27T10:30:48.704Z,111520
2018-04-27T10:31:48.704Z,125344
2018-04-27T10:32:48.648Z,125408
2018-04-27T10:33:48.705Z,121184
2018-04-27T10:34:48.664Z,116384
2018-04-27T10:35:48.712Z,124064
2018-04-27T10:36:48.715Z,105152
2018-04-27T10:37:48.716Z,103872
2018-04-27T10:38:48.652Z,78176
2018-04-27T10:39:48.707Z,107104
2018-04-27T10:40:48.650Z,101696
2018-04-27T10:41:48.647Z,102912
2018-04-27T10:42:48.717Z,69920
2018-04-27T10:43:48.665Z,67968
2018-04-27T10:44:48.651Z,67136
2018-04-27T10:45:48.719Z,70336
2018-04-27T10:46:48.653Z,101312
2018-04-27T10:47:48.717Z,109056
2018-04-27T10:48:48.651Z,127840
2018-04-27T10:49:48.733Z,127776
2018-04-27T10:50:48.731Z,120224
2018-04-27T10:51:48.738Z,123936
2018-04-27T10:52:48.720Z,117536
2018-04-27T10:53:48.660Z,114848
2018-04-27T10:54:48.727Z,107936
2018-04-27T10:55:48.683Z,100928
2018-04-27T10:56:48.727Z,112224
2018-04-27T10:57:48.665Z,106016
2018-04-27T10:58:48.667Z,115264
2018-04-27T10:59:48.659Z,119232
2018-04-27T11:00:48.764Z,116448
2018-04-27T11:01:48.757Z,120800
2018-04-27T11:02:48.707Z,129696
2018-04-27T11:03:48.711Z,139424
2018-04-27T11:04:48.760Z,146432
2018-04-27T11:05:48.737Z,141152
2018-04-27T11:06:48.637Z,118528
2018-04-27T11:07:48.770Z,112288
2018-04-27T11:08:48.644Z,109408
2018-04-27T11:09:48.753Z,94304
2018-04-27T11:10:48.737Z,87200
2018-04-27T11:11:48.718Z,74528
2018-04-27T11:12:48.736Z,99360
2018-04-27T11:13:48.777Z,111392
2018-04-27T11:14:48.742Z,111520
2018-04-27T11:15:48.769Z,116960
2018-04-27T11:16:48.915Z,107872
2018-04-27T11:17:48.672Z,109376
2018-04-27T11:18:48.773Z,107520
2018-04-27T11:19:48.769Z,109696
2018-04-27T11:20:48.656Z,102016
2018-04-27T11:21:48.703Z,111168
2018-04-27T11:22:48.606Z,110656
2018-04-27T11:23:48.672Z,103520
2018-04-27T11:24:48.723Z,100640
2018-04-27T11:25:48.633Z,107744
2018-04-27T11:26:48.726Z,106944
2018-04-27T11:27:48.705Z,101376
2018-04-27T11:28:48.656Z,95712
2018-04-27T11:29:48.642Z,101248
2018-04-27T11:30:48.685Z,111264
2018-04-27T11:31:48.683Z,120000
2018-04-27T11:32:48.756Z,119136
2018-04-27T11:33:48.687Z,113088
2018-04-27T11:34:48.762Z,117664
2018-04-27T11:35:48.686Z,110080
2018-04-27T11:36:48.691Z,94368
2018-04-27T11:37:48.759Z,72416
2018-04-27T11:38:48.692Z,69696
2018-04-27T11:39:48.756Z,68160
2018-04-27T11:40:48.690Z,69376
2018-04-27T11:41:48.760Z,91456
2018-04-27T11:42:48.689Z,102976
2018-04-27T11:43:48.763Z,78848
2018-04-27T11:44:48.714Z,98048
2018-04-27T11:45:48.693Z,124384
2018-04-27T11:46:48.696Z,119392
2018-04-27T11:47:48.820Z,123328
2018-04-27T11:48:48.697Z,119904
2018-04-27T11:49:48.731Z,120064
2018-04-27T11:50:48.702Z,97792
2018-04-27T11:51:48.765Z,75264
2018-04-27T11:52:48.761Z,68704
2018-04-27T11:53:48.698Z,67072
2018-04-27T11:54:48.768Z,71296
2018-04-27T11:55:48.795Z,120512
2018-04-27T11:56:48.772Z,87872
2018-04-27T11:57:48.867Z,106272
2018-04-27T11:58:48.767Z,98656
2018-04-27T11:59:48.708Z,96064
2018-04-27T12:00:48.728Z,96960
2018-04-27T12:01:48.873Z,118656
2018-04-27T12:02:48.706Z,125216
2018-04-27T12:03:48.775Z,116000
2018-04-27T12:04:48.727Z,122592
2018-04-27T12:05:48.704Z,120608
2018-04-27T12:06:48.806Z,123008
2018-04-27T12:07:48.778Z,122688
2018-04-27T12:08:48.709Z,100640
2018-04-27T12:09:48.774Z,89568
2018-04-27T12:10:48.813Z,71776
2018-04-27T12:11:48.697Z,69600
2018-04-27T12:12:48.714Z,79072
2018-04-27T12:13:48.779Z,94752
2018-04-27T12:14:48.735Z,104832
2018-04-27T12:15:48.749Z,102944
2018-04-27T12:16:48.798Z,113024
2018-04-27T12:17:48.709Z,102688
2018-04-27T12:18:48.776Z,92416
2018-04-27T12:19:48.783Z,85184
2018-04-27T12:20:48.763Z,77344
2018-04-27T12:21:48.702Z,77216
2018-04-27T12:22:48.785Z,87232
2018-04-27T12:23:48.767Z,86752
2018-04-27T12:24:48.757Z,91520
2018-04-27T12:25:48.783Z,99904
2018-04-27T12:26:48.763Z,108320
2018-04-27T12:27:48.815Z,93536
2018-04-27T12:28:48.831Z,99456
2018-04-27T12:29:48.821Z,95680
2018-04-27T12:30:48.655Z,98048
2018-04-27T12:31:48.863Z,100416
2018-04-27T12:32:48.716Z,100960
2018-04-27T12:33:48.651Z,95136
2018-04-27T12:34:48.772Z,89760
2018-04-27T12:35:48.771Z,93632
2018-04-27T12:36:48.685Z,97600
2018-04-27T12:37:48.744Z,104960
2018-04-27T12:38:48.844Z,101536
2018-04-27T12:39:48.779Z,101824
2018-04-27T12:40:48.796Z,101312
2018-04-27T12:41:48.733Z,99232
2018-04-27T12:42:48.676Z,104704
2018-04-27T12:43:48.740Z,105856
2018-04-27T12:44:48.725Z,98368
2018-04-27T12:45:48.802Z,90848
2018-04-27T12:46:48.733Z,86496
2018-04-27T12:47:48.727Z,95168
2018-04-27T12:48:48.734Z,95072
2018-04-27T12:49:48.732Z,102752
2018-04-27T12:50:48.800Z,116448
2018-04-27T12:51:48.735Z,119232
2018-04-27T12:52:48.737Z,124224
2018-04-27T12:53:48.800Z,120320
2018-04-27T12:54:48.737Z,108800
2018-04-27T12:55:48.804Z,112384
2018-04-27T12:56:48.739Z,120576
2018-04-27T12:57:48.737Z,126016
2018-04-27T12:58:48.736Z,121184
2018-04-27T12:59:48.811Z,112384
2018-04-27T13:00:48.769Z,111392
2018-04-27T13:01:48.712Z,120064
2018-04-27T13:02:48.732Z,119968
2018-04-27T13:03:48.841Z,120896
2018-04-27T13:04:48.782Z,123680
2018-04-27T13:05:48.839Z,122752
2018-04-27T13:06:48.772Z,130176
2018-04-27T13:07:48.848Z,123488
2018-04-27T13:08:48.816Z,127936
2018-04-27T13:09:48.772Z,122720
2018-04-27T13:10:48.838Z,109760
2018-04-27T13:11:48.875Z,113312
2018-04-27T13:12:48.786Z,119328
2018-04-27T13:13:48.841Z,119936
2018-04-27T13:14:48.815Z,121056
2018-04-27T13:15:48.822Z,120320
2018-04-27T13:16:48.817Z,127200
2018-04-27T13:17:48.835Z,126944
2018-04-27T13:18:48.797Z,117696